Flight Track Log - Related Links

Times and Time Zones

All times are in EDT time to prevent confusion due to time zone crossing. See the ASQ4577 flight status page for this flight to view local times or setup timezone preferences in your user account.

Time Position Orientation Groundspeed Altitude Reporting Facility
EDT Latitude Longitude Course Direction KTS MPH feet Rate Location/Type
Mon 08:03:54 PM 41.4153 -81.8375 24° Northeast 164 189 1,600  Level Cleveland Center
Mon 08:04:31 PM 41.4425 -81.8214 24° Northeast 182 209 3,100 2,182 Climbing Cleveland Center
Mon 08:05:33 PM 41.5014 -81.7753 30° Northeast 226 260 5,200 2,311 Climbing Cleveland Center
Mon 08:06:33 PM 41.5603 -81.7153 37° Northeast 259 298 7,800 2,650 Climbing Cleveland Center
Mon 08:07:33 PM 41.6194 -81.6525 38° Northeast 268 308 10,500 1,800 Climbing Cleveland Center
Mon 08:08:33 PM 41.6783 -81.5894 39° Northeast 282 325 11,400 1,000 Climbing Cleveland Center
Mon 08:09:33 PM 41.7497 -81.5156 38° Northeast 311 358 12,500 1,350 Climbing Cleveland Center
Mon 08:10:33 PM 41.8233 -81.4303 41° Northeast 337 388 14,100 1,550 Climbing Cleveland Center
Mon 08:11:33 PM 41.8597 -81.3025 69° East 357 411 15,600 1,450 Climbing Cleveland Center
Mon 08:12:33 PM 41.8792 -81.1689 79° East 355 409 17,000 1,400 Climbing Cleveland Center
Mon 08:13:33 PM 41.9050 -81.0239 76° East 360 414 18,400 1,550 Climbing Cleveland Center
Mon 08:14:33 PM 41.9242 -80.8931 79° East 360 414 20,100 1,350 Climbing Cleveland Center
Mon 08:15:33 PM 41.9453 -80.7589 78° East 360 414 21,100 1,000 Climbing Cleveland Center
Mon 08:16:33 PM 41.9661 -80.6167 79° East 365 420 22,100 1,050 Climbing Cleveland Center
Mon 08:17:33 PM 41.9892 -80.4769 77° East 378 435 23,200 1,050 Climbing Cleveland Center
Mon 08:18:33 PM 42.0097 -80.3344 79° East 385 443 24,200 1,000 Climbing Cleveland Center
Mon 08:19:33 PM 42.0322 -80.1917 78° East 391 450 25,200 1,000 Climbing Cleveland Center
Mon 08:20:33 PM 42.0525 -80.0547 79° East 386 444 26,200 900 Climbing Cleveland Center
Mon 08:21:33 PM 42.0728 -79.9314 77° East 381 438 27,000 900 Climbing Cleveland Center
Mon 08:22:33 PM 42.0928 -79.7969 79° East 375 432 28,000 1,000 Climbing Cleveland Center
Mon 08:23:33 PM 42.1125 -79.6622 79° East 370 426 29,000 1,000 Climbing Cleveland Center
Mon 08:24:33 PM 42.1303 -79.5333 79° East 365 420 30,000 1,000 Climbing Cleveland Center
Mon 08:25:33 PM 42.1497 -79.4014 79° East 365 420 31,000 500 Climbing Cleveland Center
Mon 08:26:33 PM 42.1692 -79.2581 80° East 365 420 31,000  Level Cleveland Center
Mon 08:27:33 PM 42.1883 -79.1147 80° East 378 435 31,000  Level Cleveland Center
Mon 08:28:33 PM 42.2092 -78.9686 79° East 390 449 31,000  Level Cleveland Center
Mon 08:29:33 PM 42.2278 -78.8194 80° East 395 455 31,000  Level Cleveland Center
Mon 08:30:33 PM 42.2483 -78.6672 80° East 395 455 31,000  Level Cleveland Center
Mon 08:31:33 PM 42.2647 -78.5208 81° East 395 455 31,000  Level Cleveland Center
Mon 08:32:33 PM 42.2847 -78.3686 80° East 400 460 31,000  Level Cleveland Center
Mon 08:33:33 PM 42.3047 -78.2164 80° East 406 467 31,000  Level Cleveland Center
Mon 08:34:33 PM 42.3222 -78.0583 81° East 412 474 31,000  Level Cleveland Center
Mon 08:35:33 PM 42.3417 -77.9031 80° East 412 474 31,000  Level Cleveland Center
Mon 08:36:33 PM 42.3622 -77.7253 81° East 422 486 31,000 -155 Level Cleveland Center
Mon 08:38:08 PM 42.3908 -77.4731 81° East 434 499 30,600 -542 Descending Boston Center
Mon 08:39:08 PM 42.4108 -77.3058 81° East 441 507 29,600 -800 Descending Boston Center
Mon 08:40:08 PM 42.4261 -77.1411 83° East 441 507 29,000 -300 Descending Boston Center
Mon 08:41:08 PM 42.4450 -76.9792 81° East 441 507 29,000  Level Boston Center
Mon 08:42:08 PM 42.4619 -76.8142 82° East 441 507 29,000  Level Boston Center
Mon 08:43:08 PM 42.4806 -76.6522 81° East 441 507 29,000  Level Boston Center
Mon 08:44:08 PM 42.4994 -76.4817 81° East 446 513 29,000  Level Boston Center
Mon 08:45:08 PM 42.5178 -76.3167 81° East 446 513 29,000  Level Boston Center
Mon 08:46:08 PM 42.5333 -76.1625 82° East 446 513 29,000  Level Boston Center
Mon 08:47:08 PM 42.5511 -75.9944 82° East 446 513 29,000 -50 Level Boston Center
Mon 08:48:08 PM 42.5667 -75.8233 83° East 446 513 28,900 -600 Descending Boston Center
Mon 08:49:08 PM 42.5819 -75.6578 83° East 446 513 27,800 -1,700 Descending Boston Center
Mon 08:50:08 PM 42.6011 -75.4950 81° East 441 507 25,500 -2,500 Descending Boston Center
Mon 08:51:08 PM 42.6450 -75.3333 70° East 425 489 22,800 -2,350 Descending Boston Center
Mon 08:52:08 PM 42.6819 -75.1883 71° East 413 475 20,800 -2,050 Descending Boston Center
Mon 08:53:08 PM 42.7206 -75.0486 69° East 395 455 18,700 -2,000 Descending Boston Center
Mon 08:54:08 PM 42.7611 -74.9117 68° East 389 448 16,800 -1,888 Descending Boston Center
Mon 08:54:37 PM 42.7772 -74.8503 70° East 380 437 15,900 -2,100 Descending Boston Center
Mon 08:55:08 PM 42.7767 -74.7739 91° East 377 434 14,700 -2,222 Descending Boston Center
Mon 08:55:31 PM 42.7756 -74.7200 92° East 364 419 13,900 -1,900 Descending Boston Center
Mon 08:56:08 PM 42.7728 -74.6492 93° East 365 420 12,800 -1,770 Descending Boston Center
Mon 08:56:32 PM 42.7719 -74.5897 91° East 345 397 12,100 -1,600 Descending Boston Center
Mon 08:57:08 PM 42.7711 -74.5161 91° East 336 387 11,200 -1,500 Descending Boston Center
Mon 08:57:32 PM 42.7658 -74.4736 100° East 291 335 10,600 -1,500 Descending Boston Center
Mon 08:58:08 PM 42.7542 -74.4194 106° East 302 348 9,700 -1,574 Descending Boston Center
Mon 08:58:33 PM 42.7425 -74.3711 108° East 291 335 9,000 -1,700 Descending Boston Center
Mon 08:59:08 PM 42.7206 -74.3081 115° Southeast 290 334 8,000 -1,672 Descending Boston Center
Mon 08:59:34 PM 42.7131 -74.2628 103° East 285 328 7,300 -1,500 Descending Boston Center
Mon 09:00:08 PM 42.7053 -74.2172 103° East 284 327 6,500 -1,500 Descending Boston Center
Mon 09:00:34 PM 42.6981 -74.1606 100° East 268 308 5,800 -1,500 Descending Boston Center
Mon 09:01:08 PM 42.6925 -74.1039 98° East 273 314 5,000 -1,475 Descending Boston Center
Mon 09:01:35 PM 42.6869 -74.0614 100° East 273 314 4,300 -1,100 Descending Boston Center
Mon 09:02:08 PM 42.6814 -74.0131 99° East 273 314 3,900 -885 Descending Boston Center
Mon 09:02:36 PM 42.6758 -73.9622 98° East 264 304 3,400 -900 Descending Boston Center
Mon 09:03:08 PM 42.6700 -73.9197 101° East 268 308 3,000 -700 Descending Boston Center
Mon 09:03:36 PM 42.6644 -73.8717 99° East 235 270 2,700 -500 Descending Boston Center
Mon 09:04:08 PM 42.6567 -73.8178 101° East 254 292 2,500 -984 Descending Boston Center
Mon 09:04:37 PM 42.6672 -73.8039 44° Northeast 151 174 1,700 -1,000 Descending Boston Center
Mon 09:05:38 PM 42.7028 -73.8047 359° North 108 124 1,000 -689 Descending Boston Center

Login

Don't have an account? Register now (free) for customized features, flight alerts, and more!